createdAt,value
2018-06-02T00:00:06.936Z,0
2018-06-02T00:01:06.679Z,0
2018-06-02T00:02:06.925Z,0
2018-06-02T00:03:07.177Z,0
2018-06-02T00:04:06.670Z,0
2018-06-02T00:05:07.179Z,0
2018-06-02T00:06:07.162Z,0
2018-06-02T00:07:06.911Z,0
2018-06-02T00:08:06.900Z,0
2018-06-02T00:09:06.632Z,0
2018-06-02T00:10:06.891Z,0
2018-06-02T00:11:06.801Z,0
2018-06-02T00:12:06.876Z,0
2018-06-02T00:13:07.137Z,0
2018-06-02T00:14:06.358Z,0
2018-06-02T00:15:07.122Z,0
2018-06-02T00:16:06.604Z,0
2018-06-02T00:17:06.344Z,0
2018-06-02T00:18:07.130Z,0
2018-06-02T00:19:06.348Z,0
2018-06-02T00:20:06.583Z,0
2018-06-02T00:21:07.092Z,0
2018-06-02T00:22:06.642Z,0
2018-06-02T00:23:06.832Z,0
2018-06-02T00:24:06.576Z,0
2018-06-02T00:25:06.822Z,0
2018-06-02T00:26:06.556Z,0
2018-06-02T00:27:06.297Z,0
2018-06-02T00:28:06.847Z,0
2018-06-02T00:29:06.553Z,0
2018-06-02T00:30:07.057Z,0
2018-06-02T00:31:06.800Z,0
2018-06-02T00:32:06.536Z,0
2018-06-02T00:33:06.271Z,0
2018-06-02T00:34:06.267Z,0
2018-06-02T00:35:06.520Z,0
2018-06-02T00:36:06.778Z,0
2018-06-02T00:37:06.506Z,0
2018-06-02T00:38:06.501Z,0
2018-06-02T00:39:07.023Z,0
2018-06-02T00:40:06.500Z,0
2018-06-02T00:41:06.493Z,0
2018-06-02T00:42:06.744Z,0
2018-06-02T00:43:06.228Z,0
2018-06-02T00:44:06.747Z,0
2018-06-02T00:45:06.472Z,0
2018-06-02T00:46:06.214Z,0
2018-06-02T00:47:06.721Z,0
2018-06-02T00:48:06.998Z,0
2018-06-02T00:49:06.722Z,0
2018-06-02T00:50:06.188Z,0
2018-06-02T00:51:06.960Z,0
2018-06-02T00:52:06.957Z,0
2018-06-02T00:53:06.946Z,0
2018-06-02T00:54:06.688Z,0
2018-06-02T00:55:06.426Z,0
2018-06-02T00:56:06.677Z,0
2018-06-02T00:57:06.671Z,0
2018-06-02T00:58:06.668Z,0
2018-06-02T00:59:06.144Z,0
2018-06-02T01:00:06.401Z,0
2018-06-02T01:01:06.913Z,0
2018-06-02T01:02:06.394Z,0
2018-06-02T01:03:06.392Z,0
2018-06-02T01:04:06.387Z,0
2018-06-02T01:05:06.379Z,0
2018-06-02T01:06:06.373Z,0
2018-06-02T01:07:06.627Z,0
2018-06-02T01:08:06.357Z,0
2018-06-02T01:09:06.356Z,0
2018-06-02T01:10:06.607Z,0
2018-06-02T01:11:06.608Z,0
2018-06-02T01:12:06.596Z,0
2018-06-02T01:13:06.340Z,0
2018-06-02T01:14:06.844Z,0
2018-06-02T01:15:06.838Z,0
2018-06-02T01:16:06.323Z,0
2018-06-02T01:17:06.835Z,0
2018-06-02T01:18:06.323Z,0
2018-06-02T01:19:06.053Z,0
2018-06-02T01:20:06.299Z,0
2018-06-02T01:21:06.620Z,0
2018-06-02T01:22:06.294Z,0
2018-06-02T01:23:06.031Z,0
2018-06-02T01:24:06.284Z,0
2018-06-02T01:25:06.541Z,0
2018-06-02T01:26:06.022Z,0
2018-06-02T01:27:06.020Z,0
2018-06-02T01:28:06.527Z,0
2018-06-02T01:29:06.777Z,0
2018-06-02T01:30:05.999Z,0
2018-06-02T01:31:06.260Z,0
2018-06-02T01:32:06.243Z,0
2018-06-02T01:33:06.238Z,0
2018-06-02T01:34:06.761Z,0
2018-06-02T01:35:06.489Z,0
2018-06-02T01:36:05.963Z,0
2018-06-02T01:37:06.265Z,0
2018-06-02T01:38:06.469Z,0
2018-06-02T01:39:06.223Z,0
2018-06-02T01:40:06.463Z,0
2018-06-02T01:41:06.725Z,0
2018-06-02T01:42:06.455Z,0
2018-06-02T01:43:06.449Z,0
2018-06-02T01:44:06.442Z,0
2018-06-02T01:45:05.919Z,0
2018-06-02T01:46:06.430Z,0
2018-06-02T01:47:06.170Z,0
2018-06-02T01:48:06.163Z,0
2018-06-02T01:49:05.908Z,0
2018-06-02T01:50:06.416Z,0
2018-06-02T01:51:06.156Z,0
2018-06-02T01:52:06.411Z,0
2018-06-02T01:53:05.880Z,0
2018-06-02T01:54:05.876Z,0
2018-06-02T01:55:06.391Z,0
2018-06-02T01:56:06.648Z,0
2018-06-02T01:57:06.124Z,0
2018-06-02T01:58:06.375Z,0
2018-06-02T01:59:06.369Z,0
2018-06-02T02:00:06.104Z,0
2018-06-02T02:01:06.630Z,0
2018-06-02T02:02:06.364Z,0
2018-06-02T02:03:05.829Z,0
2018-06-02T02:04:06.351Z,0
2018-06-02T02:05:06.335Z,0
2018-06-02T02:06:05.814Z,0
2018-06-02T02:07:06.332Z,0
2018-06-02T02:08:06.317Z,0
2018-06-02T02:09:05.801Z,0
2018-06-02T02:10:06.060Z,0
2018-06-02T02:11:06.568Z,0
2018-06-02T02:12:06.594Z,0
2018-06-02T02:13:05.778Z,0
2018-06-02T02:14:06.053Z,0
2018-06-02T02:15:06.296Z,0
2018-06-02T02:16:06.542Z,0
2018-06-02T02:17:06.027Z,0
2018-06-02T02:18:06.276Z,0
2018-06-02T02:19:06.007Z,0
2018-06-02T02:20:06.000Z,0
2018-06-02T02:21:06.003Z,0
2018-06-02T02:22:06.247Z,0
2018-06-02T02:23:06.242Z,0
2018-06-02T02:24:05.729Z,0
2018-06-02T02:25:05.979Z,0
2018-06-02T02:26:06.229Z,0
2018-06-02T02:27:06.226Z,0
2018-06-02T02:28:06.478Z,0
2018-06-02T02:29:06.216Z,0
2018-06-02T02:30:06.210Z,0
2018-06-02T02:31:06.233Z,0
2018-06-02T02:32:05.942Z,0
2018-06-02T02:33:05.688Z,0
2018-06-02T02:34:06.451Z,0
2018-06-02T02:35:06.443Z,0
2018-06-02T02:36:06.193Z,0
2018-06-02T02:37:05.921Z,0
2018-06-02T02:38:06.167Z,0
2018-06-02T02:39:06.421Z,0
2018-06-02T02:40:06.171Z,0
2018-06-02T02:41:05.906Z,0
2018-06-02T02:42:05.897Z,0
2018-06-02T02:43:06.191Z,0
2018-06-02T02:44:06.164Z,0
2018-06-02T02:45:06.394Z,0
2018-06-02T02:46:06.130Z,0
2018-06-02T02:47:06.138Z,0
2018-06-02T02:48:06.117Z,0
2018-06-02T02:49:05.599Z,0
2018-06-02T02:50:05.595Z,0
2018-06-02T02:51:05.847Z,0
2018-06-02T02:52:05.577Z,0
2018-06-02T02:53:05.835Z,0
2018-06-02T02:54:06.086Z,0
2018-06-02T02:55:05.820Z,0
2018-06-02T02:56:05.830Z,0
2018-06-02T02:57:06.072Z,0
2018-06-02T02:58:05.558Z,0
2018-06-02T02:59:05.816Z,0
2018-06-02T03:00:05.794Z,5
2018-06-02T03:01:06.314Z,5
2018-06-02T03:02:06.329Z,5
2018-06-02T03:03:06.321Z,5
2018-06-02T03:04:05.772Z,5
2018-06-02T03:05:05.798Z,5
2018-06-02T03:06:06.028Z,5
2018-06-02T03:07:06.023Z,5
2018-06-02T03:08:06.011Z,10
2018-06-02T03:09:06.040Z,10
2018-06-02T03:10:06.265Z,10
2018-06-02T03:11:05.996Z,10
2018-06-02T03:12:06.260Z,10
2018-06-02T03:13:06.244Z,10
2018-06-02T03:14:05.991Z,10
2018-06-02T03:15:05.980Z,10
2018-06-02T03:16:05.726Z,15
2018-06-02T03:17:05.962Z,15
2018-06-02T03:18:06.009Z,15
2018-06-02T03:19:06.212Z,15
2018-06-02T03:20:05.876Z,15
2018-06-02T03:21:05.936Z,15
2018-06-02T03:22:05.939Z,20
2018-06-02T03:23:05.938Z,20
2018-06-02T03:24:06.184Z,20
2018-06-02T03:25:05.698Z,20
2018-06-02T03:26:06.196Z,20
2018-06-02T03:27:06.200Z,20
2018-06-02T03:28:06.161Z,20
2018-06-02T03:29:06.187Z,20
2018-06-02T03:30:05.643Z,20
2018-06-02T03:31:05.924Z,25
2018-06-02T03:32:06.176Z,25
2018-06-02T03:33:05.624Z,30
2018-06-02T03:34:05.867Z,30
2018-06-02T03:35:06.133Z,30
2018-06-02T03:36:05.859Z,30
2018-06-02T03:37:05.337Z,35
2018-06-02T03:38:05.589Z,35
2018-06-02T03:39:06.110Z,35
2018-06-02T03:40:05.850Z,35
2018-06-02T03:41:06.085Z,40
2018-06-02T03:42:05.833Z,45
2018-06-02T03:43:05.817Z,40
2018-06-02T03:44:05.852Z,45
2018-06-02T03:45:05.828Z,45
2018-06-02T03:46:05.805Z,45
2018-06-02T03:47:06.057Z,50
2018-06-02T03:48:05.536Z,45
2018-06-02T03:49:05.790Z,50
2018-06-02T03:50:05.801Z,50
2018-06-02T03:51:05.513Z,50
2018-06-02T03:52:05.260Z,50
2018-06-02T03:53:06.031Z,50
2018-06-02T03:54:05.760Z,55
2018-06-02T03:55:06.057Z,50
2018-06-02T03:56:05.242Z,55
2018-06-02T03:57:05.745Z,55
2018-06-02T03:58:06.000Z,55
2018-06-02T03:59:05.739Z,55
2018-06-02T04:00:05.727Z,55
2018-06-02T04:01:05.984Z,55
2018-06-02T04:02:05.210Z,55
2018-06-02T04:03:05.455Z,60
2018-06-02T04:04:05.982Z,60
2018-06-02T04:05:05.450Z,60
2018-06-02T04:06:05.703Z,60
2018-06-02T04:07:05.951Z,60
2018-06-02T04:08:05.433Z,60
2018-06-02T04:09:05.420Z,60
2018-06-02T04:10:05.976Z,60
2018-06-02T04:11:05.936Z,65
2018-06-02T04:12:05.420Z,65
2018-06-02T04:13:05.667Z,65
2018-06-02T04:14:05.925Z,65
2018-06-02T04:15:05.658Z,65
2018-06-02T04:16:06.052Z,70
2018-06-02T04:17:05.649Z,70
2018-06-02T04:18:05.379Z,70
2018-06-02T04:19:05.385Z,70
2018-06-02T04:20:05.623Z,70
2018-06-02T04:21:05.880Z,70
2018-06-02T04:22:05.882Z,75
2018-06-02T04:23:05.616Z,75
2018-06-02T04:24:05.358Z,75
2018-06-02T04:25:05.602Z,75
2018-06-02T04:26:05.602Z,75
2018-06-02T04:27:05.333Z,75
2018-06-02T04:28:05.846Z,75
2018-06-02T04:29:05.843Z,75
2018-06-02T04:30:05.600Z,80
2018-06-02T04:31:05.358Z,80
2018-06-02T04:32:05.309Z,80
2018-06-02T04:33:05.827Z,80
2018-06-02T04:34:05.554Z,80
2018-06-02T04:35:05.036Z,80
2018-06-02T04:36:05.545Z,85
2018-06-02T04:37:05.292Z,85
2018-06-02T04:38:05.283Z,85
2018-06-02T04:39:05.787Z,85
2018-06-02T04:40:05.284Z,85
2018-06-02T04:41:05.526Z,85
2018-06-02T04:42:05.530Z,85
2018-06-02T04:43:05.526Z,85
2018-06-02T04:44:05.517Z,85
2018-06-02T04:45:05.513Z,85
2018-06-02T04:46:05.241Z,85
2018-06-02T04:47:05.501Z,90
2018-06-02T04:48:05.498Z,90
2018-06-02T04:49:05.491Z,95
2018-06-02T04:50:05.220Z,95
2018-06-02T04:51:05.442Z,90
2018-06-02T04:52:05.728Z,90
2018-06-02T04:53:05.521Z,90
2018-06-02T04:54:04.941Z,90
2018-06-02T04:55:05.718Z,90
2018-06-02T04:56:04.933Z,90
2018-06-02T04:57:05.576Z,90
2018-06-02T04:58:05.698Z,90
2018-06-02T04:59:05.447Z,90
2018-06-02T05:00:05.430Z,95
2018-06-02T05:01:05.427Z,95
2018-06-02T05:02:05.196Z,95
2018-06-02T05:03:05.428Z,95
2018-06-02T05:04:05.671Z,95
2018-06-02T05:05:05.608Z,95
2018-06-02T05:06:05.406Z,95
2018-06-02T05:07:05.399Z,95
2018-06-02T05:08:05.397Z,95
2018-06-02T05:09:05.392Z,95
2018-06-02T05:10:05.388Z,95
2018-06-02T05:11:04.865Z,100
2018-06-02T05:12:05.375Z,95
2018-06-02T05:13:05.630Z,100
2018-06-02T05:14:05.106Z,100
2018-06-02T05:15:05.715Z,100
2018-06-02T05:16:05.098Z,100
2018-06-02T05:17:05.100Z,100
2018-06-02T05:18:05.105Z,100
2018-06-02T05:19:05.346Z,100
2018-06-02T05:20:05.078Z,100
2018-06-02T05:21:05.085Z,100
2018-06-02T05:22:04.814Z,100
2018-06-02T05:23:05.067Z,105
2018-06-02T05:24:05.324Z,105
2018-06-02T05:25:05.578Z,105
2018-06-02T05:26:05.057Z,110
2018-06-02T05:27:05.314Z,110
2018-06-02T05:28:05.302Z,105
2018-06-02T05:29:05.596Z,110
2018-06-02T05:30:05.031Z,110
2018-06-02T05:31:05.292Z,110
2018-06-02T05:32:05.285Z,110
2018-06-02T05:33:05.537Z,115
2018-06-02T05:34:04.761Z,115
2018-06-02T05:35:05.277Z,120
2018-06-02T05:36:05.011Z,120
2018-06-02T05:37:05.012Z,130
2018-06-02T05:38:05.263Z,140
2018-06-02T05:39:05.524Z,140
2018-06-02T05:40:04.992Z,150
2018-06-02T05:41:04.998Z,185
2018-06-02T05:42:05.244Z,205
2018-06-02T05:43:05.289Z,220
2018-06-02T05:44:04.977Z,275
2018-06-02T05:45:04.976Z,295
2018-06-02T05:46:05.745Z,250
2018-06-02T05:47:05.221Z,255
2018-06-02T05:48:04.960Z,250
2018-06-02T05:49:04.961Z,280
2018-06-02T05:50:05.211Z,215
2018-06-02T05:51:05.206Z,235
2018-06-02T05:52:05.210Z,270
2018-06-02T05:53:04.941Z,290
2018-06-02T05:54:05.198Z,330
2018-06-02T05:55:05.197Z,290
2018-06-02T05:56:04.947Z,315
2018-06-02T05:57:04.937Z,325
2018-06-02T05:58:05.450Z,230
2018-06-02T05:59:04.930Z,210
2018-06-02T06:00:04.409Z,240
2018-06-02T06:01:05.187Z,210
2018-06-02T06:02:04.919Z,315
2018-06-02T06:03:05.173Z,285
2018-06-02T06:04:05.177Z,240
2018-06-02T06:05:05.227Z,220
2018-06-02T06:06:04.913Z,205
2018-06-02T06:07:05.159Z,215
2018-06-02T06:08:05.161Z,215
2018-06-02T06:09:05.171Z,250
2018-06-02T06:10:05.421Z,325
2018-06-02T06:11:05.407Z,295
2018-06-02T06:12:05.408Z,230
2018-06-02T06:13:04.626Z,190
2018-06-02T06:14:05.140Z,170
2018-06-02T06:15:05.139Z,165
2018-06-02T06:16:05.407Z,235
2018-06-02T06:17:05.132Z,235
2018-06-02T06:18:05.138Z,260
2018-06-02T06:19:04.873Z,235
2018-06-02T06:20:04.869Z,195
2018-06-02T06:21:04.606Z,185
2018-06-02T06:22:04.878Z,225
2018-06-02T06:23:04.859Z,175
2018-06-02T06:24:05.382Z,140
2018-06-02T06:25:04.617Z,140
2018-06-02T06:26:05.390Z,150
2018-06-02T06:27:05.528Z,160
2018-06-02T06:28:04.860Z,155
2018-06-02T06:29:04.846Z,175
2018-06-02T06:30:04.848Z,155
2018-06-02T06:31:05.098Z,145
2018-06-02T06:32:05.359Z,155
2018-06-02T06:33:05.314Z,180
2018-06-02T06:34:04.580Z,185
2018-06-02T06:35:05.090Z,230
2018-06-02T06:36:05.090Z,265
2018-06-02T06:37:05.344Z,385
2018-06-02T06:38:05.341Z,380
2018-06-02T06:39:05.223Z,385
2018-06-02T06:40:05.076Z,345
2018-06-02T06:41:05.384Z,390
2018-06-02T06:42:05.078Z,400
2018-06-02T06:43:04.811Z,395
2018-06-02T06:44:05.073Z,430
2018-06-02T06:45:04.551Z,465
2018-06-02T06:46:04.811Z,390
2018-06-02T06:47:05.074Z,280
2018-06-02T06:48:04.553Z,625
2018-06-02T06:49:05.078Z,535
2018-06-02T06:50:04.814Z,655
2018-06-02T06:51:04.552Z,615
2018-06-02T06:52:04.826Z,680
2018-06-02T06:53:04.807Z,590
2018-06-02T06:54:05.071Z,445
2018-06-02T06:55:04.812Z,505
2018-06-02T06:56:04.810Z,470
2018-06-02T06:57:04.823Z,375
2018-06-02T06:58:05.347Z,360
2018-06-02T06:59:05.079Z,360
2018-06-02T07:00:05.334Z,330
2018-06-02T07:01:04.847Z,310
2018-06-02T07:02:04.816Z,275
2018-06-02T07:03:05.083Z,245
2018-06-02T07:04:04.836Z,285
2018-06-02T07:05:05.341Z,335
2018-06-02T07:06:04.570Z,355
2018-06-02T07:07:04.564Z,365
2018-06-02T07:08:05.353Z,420
2018-06-02T07:09:05.301Z,505
2018-06-02T07:10:05.091Z,535
2018-06-02T07:11:04.579Z,400
2018-06-02T07:12:05.694Z,330
2018-06-02T07:13:05.352Z,340
2018-06-02T07:14:04.831Z,335
2018-06-02T07:15:05.100Z,365
2018-06-02T07:16:05.097Z,395
2018-06-02T07:17:04.832Z,315
2018-06-02T07:18:05.348Z,290
2018-06-02T07:19:04.834Z,305
2018-06-02T07:20:05.098Z,300
2018-06-02T07:21:05.370Z,265
2018-06-02T07:22:05.100Z,245
2018-06-02T07:23:05.088Z,225
2018-06-02T07:24:05.363Z,200
2018-06-02T07:25:05.101Z,190
2018-06-02T07:26:05.097Z,210
2018-06-02T07:27:04.589Z,255
2018-06-02T07:28:05.092Z,325
2018-06-02T07:29:04.574Z,395
2018-06-02T07:30:05.117Z,345
2018-06-02T07:31:05.352Z,330
2018-06-02T07:32:04.898Z,340
2018-06-02T07:33:05.361Z,315
2018-06-02T07:34:05.096Z,295
2018-06-02T07:35:05.407Z,270
2018-06-02T07:36:05.178Z,285
2018-06-02T07:37:04.852Z,285
2018-06-02T07:38:05.092Z,290
2018-06-02T07:39:04.843Z,290
2018-06-02T07:40:05.088Z,270
2018-06-02T07:41:05.343Z,275
2018-06-02T07:42:04.848Z,280
2018-06-02T07:43:05.355Z,295
2018-06-02T07:44:05.087Z,295
2018-06-02T07:45:04.955Z,310
2018-06-02T07:46:05.261Z,345
2018-06-02T07:47:04.571Z,365
2018-06-02T07:48:04.829Z,370
2018-06-02T07:49:04.832Z,370
2018-06-02T07:50:05.273Z,380
2018-06-02T07:51:05.084Z,425
2018-06-02T07:52:05.087Z,445
2018-06-02T07:53:04.831Z,420
2018-06-02T07:54:05.338Z,390
2018-06-02T07:55:05.082Z,395
2018-06-02T07:56:04.569Z,420
2018-06-02T07:57:04.841Z,430
2018-06-02T07:58:05.090Z,405
2018-06-02T07:59:04.569Z,390
2018-06-02T08:00:05.085Z,380
2018-06-02T08:01:05.079Z,365
2018-06-02T08:02:05.077Z,370
2018-06-02T08:03:04.822Z,395
2018-06-02T08:04:04.594Z,355
2018-06-02T08:05:05.082Z,320
2018-06-02T08:06:05.354Z,335
2018-06-02T08:07:05.341Z,370
2018-06-02T08:08:04.819Z,410
2018-06-02T08:09:04.828Z,465
2018-06-02T08:10:04.821Z,490
2018-06-02T08:11:05.094Z,455
2018-06-02T08:12:05.087Z,450
2018-06-02T08:13:05.086Z,430
2018-06-02T08:14:05.086Z,405
2018-06-02T08:15:05.077Z,410
2018-06-02T08:16:04.821Z,445
2018-06-02T08:17:05.077Z,485
2018-06-02T08:18:04.827Z,500
2018-06-02T08:19:05.336Z,540
2018-06-02T08:20:04.303Z,575
2018-06-02T08:21:04.833Z,515
2018-06-02T08:22:05.087Z,445
2018-06-02T08:23:05.091Z,365
2018-06-02T08:24:05.344Z,340
2018-06-02T08:25:05.667Z,345
2018-06-02T08:26:05.140Z,350
2018-06-02T08:27:04.818Z,385
2018-06-02T08:28:05.089Z,410
2018-06-02T08:29:05.337Z,455
2018-06-02T08:30:04.827Z,465
2018-06-02T08:31:04.822Z,510
2018-06-02T08:32:04.813Z,580
2018-06-02T08:33:05.337Z,580
2018-06-02T08:34:05.079Z,610
2018-06-02T08:35:04.566Z,545
2018-06-02T08:36:05.091Z,495
2018-06-02T08:37:04.568Z,510
2018-06-02T08:38:04.826Z,500
2018-06-02T08:39:05.669Z,445
2018-06-02T08:40:04.339Z,410
2018-06-02T08:41:05.088Z,425
2018-06-02T08:42:04.837Z,450
2018-06-02T08:43:05.078Z,440
2018-06-02T08:44:05.340Z,400
2018-06-02T08:45:04.825Z,380
2018-06-02T08:46:04.827Z,390
2018-06-02T08:47:05.094Z,410
2018-06-02T08:48:05.103Z,395
2018-06-02T08:49:05.355Z,405
2018-06-02T08:50:04.572Z,430
2018-06-02T08:51:04.569Z,400
2018-06-02T08:52:05.344Z,375
2018-06-02T08:53:04.573Z,365
2018-06-02T08:54:05.092Z,395
2018-06-02T08:55:04.576Z,415
2018-06-02T08:56:05.090Z,395
2018-06-02T08:57:05.088Z,370
2018-06-02T08:58:04.845Z,335
2018-06-02T08:59:05.089Z,320
2018-06-02T09:00:04.842Z,330
2018-06-02T09:01:04.579Z,330
2018-06-02T09:02:04.584Z,335
2018-06-02T09:03:05.096Z,335
2018-06-02T09:04:04.842Z,345
2018-06-02T09:05:05.089Z,355
2018-06-02T09:06:05.091Z,355
2018-06-02T09:07:05.083Z,350
2018-06-02T09:08:04.570Z,345
2018-06-02T09:09:04.837Z,325
2018-06-02T09:10:05.105Z,305
2018-06-02T09:11:05.091Z,310
2018-06-02T09:12:04.324Z,335
2018-06-02T09:13:04.591Z,360
2018-06-02T09:14:04.574Z,370
2018-06-02T09:15:05.093Z,350
2018-06-02T09:16:04.835Z,335
2018-06-02T09:17:05.362Z,355
2018-06-02T09:18:04.319Z,360
2018-06-02T09:19:04.580Z,350
2018-06-02T09:20:05.088Z,345
2018-06-02T09:21:05.102Z,360
2018-06-02T09:22:05.351Z,395
2018-06-02T09:23:05.344Z,415
2018-06-02T09:24:04.577Z,415
2018-06-02T09:25:05.345Z,415
2018-06-02T09:26:04.834Z,425
2018-06-02T09:27:04.842Z,435
2018-06-02T09:28:04.579Z,435
2018-06-02T09:29:04.580Z,435
2018-06-02T09:30:04.837Z,435
2018-06-02T09:31:05.098Z,420
2018-06-02T09:32:04.841Z,405
2018-06-02T09:33:05.096Z,410
2018-06-02T09:34:05.095Z,450
2018-06-02T09:35:05.649Z,505
2018-06-02T09:36:04.833Z,535
2018-06-02T09:37:04.575Z,555
2018-06-02T09:38:04.832Z,590
2018-06-02T09:39:05.093Z,615
2018-06-02T09:40:05.363Z,620
2018-06-02T09:41:05.091Z,625
2018-06-02T09:42:04.838Z,645
2018-06-02T09:43:04.838Z,630
2018-06-02T09:44:05.097Z,600
2018-06-02T09:45:04.586Z,590
2018-06-02T09:46:04.836Z,595
2018-06-02T09:47:04.848Z,615
2018-06-02T09:48:05.100Z,650
2018-06-02T09:49:04.848Z,645
2018-06-02T09:50:05.112Z,620
2018-06-02T09:51:04.847Z,550
2018-06-02T09:52:04.855Z,535
2018-06-02T09:53:05.369Z,545
2018-06-02T09:54:05.366Z,540
2018-06-02T09:55:04.852Z,570
2018-06-02T09:56:04.855Z,580
2018-06-02T09:57:04.875Z,585
2018-06-02T09:58:05.377Z,585
2018-06-02T09:59:04.862Z,545
2018-06-02T10:00:05.389Z,510
2018-06-02T10:01:05.376Z,495
2018-06-02T10:02:05.383Z,500
2018-06-02T10:03:04.902Z,510
2018-06-02T10:04:05.027Z,530
2018-06-02T10:05:04.979Z,550
2018-06-02T10:06:04.873Z,555
2018-06-02T10:07:05.642Z,525
2018-06-02T10:08:04.872Z,500
2018-06-02T10:09:05.401Z,450
2018-06-02T10:10:05.146Z,395
2018-06-02T10:11:04.889Z,370
2018-06-02T10:12:04.632Z,365
2018-06-02T10:13:05.398Z,360
2018-06-02T10:14:04.885Z,370
2018-06-02T10:15:04.890Z,380
2018-06-02T10:16:04.895Z,375
2018-06-02T10:17:05.410Z,380
2018-06-02T10:18:05.407Z,380
2018-06-02T10:19:04.894Z,360
2018-06-02T10:20:04.901Z,315
2018-06-02T10:21:05.410Z,285
2018-06-02T10:22:04.900Z,285
2018-06-02T10:23:05.162Z,310
2018-06-02T10:24:05.157Z,325
2018-06-02T10:25:05.159Z,350
2018-06-02T10:26:05.163Z,375
2018-06-02T10:27:04.899Z,395
2018-06-02T10:28:04.909Z,405
2018-06-02T10:29:05.421Z,410
2018-06-02T10:30:04.644Z,410
2018-06-02T10:31:05.160Z,410
2018-06-02T10:32:05.172Z,410
2018-06-02T10:33:04.909Z,415
2018-06-02T10:34:04.648Z,410
2018-06-02T10:35:04.647Z,405
2018-06-02T10:36:04.905Z,395
2018-06-02T10:37:05.169Z,375
2018-06-02T10:38:05.170Z,365
2018-06-02T10:39:05.424Z,350
2018-06-02T10:40:05.166Z,340
2018-06-02T10:41:04.913Z,335
2018-06-02T10:42:05.425Z,345
2018-06-02T10:43:05.173Z,370
2018-06-02T10:44:04.906Z,395
2018-06-02T10:45:04.910Z,390
2018-06-02T10:46:05.429Z,340
2018-06-02T10:47:04.909Z,295
2018-06-02T10:48:05.425Z,245
2018-06-02T10:49:05.425Z,185
2018-06-02T10:50:05.169Z,140
2018-06-02T10:51:04.918Z,120
2018-06-02T10:52:04.652Z,125
2018-06-02T10:53:05.422Z,145
2018-06-02T10:54:04.906Z,170
2018-06-02T10:55:05.424Z,205
2018-06-02T10:56:05.563Z,235
2018-06-02T10:57:04.909Z,255
2018-06-02T10:58:05.168Z,285
2018-06-02T10:59:05.166Z,315
2018-06-02T11:00:04.913Z,350
2018-06-02T11:01:05.432Z,380
2018-06-02T11:02:04.905Z,405
2018-06-02T11:03:04.917Z,435
2018-06-02T11:04:04.906Z,460
2018-06-02T11:05:04.912Z,490
2018-06-02T11:06:05.161Z,515
2018-06-02T11:07:04.915Z,535
2018-06-02T11:08:05.162Z,550
2018-06-02T11:09:05.322Z,560
2018-06-02T11:10:04.906Z,570
2018-06-02T11:11:05.160Z,575
2018-06-02T11:12:05.416Z,575
2018-06-02T11:13:05.162Z,560
2018-06-02T11:14:04.901Z,505
2018-06-02T11:15:04.643Z,475
2018-06-02T11:16:04.644Z,490
2018-06-02T11:17:04.897Z,515
2018-06-02T11:18:05.160Z,530
2018-06-02T11:19:04.908Z,500
2018-06-02T11:20:05.161Z,445
2018-06-02T11:21:05.158Z,395
2018-06-02T11:22:04.905Z,385
2018-06-02T11:23:05.166Z,405
2018-06-02T11:24:05.158Z,420
2018-06-02T11:25:05.167Z,420
2018-06-02T11:26:05.169Z,410
2018-06-02T11:27:04.902Z,445
2018-06-02T11:28:05.183Z,495
2018-06-02T11:29:05.436Z,520
2018-06-02T11:30:04.910Z,525
2018-06-02T11:31:04.908Z,510
2018-06-02T11:32:04.650Z,500
2018-06-02T11:33:04.650Z,465
2018-06-02T11:34:04.657Z,480
2018-06-02T11:35:04.907Z,530
2018-06-02T11:36:04.396Z,555
2018-06-02T11:37:04.653Z,560
2018-06-02T11:38:05.165Z,555
2018-06-02T11:39:04.396Z,540
2018-06-02T11:40:05.429Z,520
2018-06-02T11:41:04.912Z,490
2018-06-02T11:42:04.913Z,465
2018-06-02T11:43:04.916Z,420
2018-06-02T11:44:04.930Z,380
2018-06-02T11:45:05.454Z,335
2018-06-02T11:46:05.177Z,290
2018-06-02T11:47:05.179Z,270
2018-06-02T11:48:05.182Z,245
2018-06-02T11:49:05.446Z,245
2018-06-02T11:50:05.188Z,275
2018-06-02T11:51:04.924Z,330
2018-06-02T11:52:05.186Z,380
2018-06-02T11:53:04.924Z,430
2018-06-02T11:54:05.184Z,450
2018-06-02T11:55:05.193Z,440
2018-06-02T11:56:04.676Z,410
2018-06-02T11:57:05.189Z,390
2018-06-02T11:58:04.938Z,390
2018-06-02T11:59:05.193Z,370
2018-06-02T12:00:05.194Z,345
2018-06-02T12:01:05.520Z,320
2018-06-02T12:02:05.204Z,315
2018-06-02T12:03:04.827Z,310
2018-06-02T12:04:05.204Z,295
2018-06-02T12:05:04.683Z,275
2018-06-02T12:06:05.458Z,275
2018-06-02T12:07:05.061Z,285
2018-06-02T12:08:04.953Z,290
2018-06-02T12:09:05.204Z,295
2018-06-02T12:10:05.201Z,300
2018-06-02T12:11:05.211Z,300
2018-06-02T12:12:04.693Z,305
2018-06-02T12:13:05.201Z,310
2018-06-02T12:14:04.724Z,315
2018-06-02T12:15:05.211Z,320
2018-06-02T12:16:05.198Z,330
2018-06-02T12:17:05.008Z,335
2018-06-02T12:18:04.686Z,335
2018-06-02T12:19:05.205Z,335
2018-06-02T12:20:04.694Z,325
2018-06-02T12:21:04.945Z,315
2018-06-02T12:22:05.468Z,305
2018-06-02T12:23:05.218Z,280
2018-06-02T12:24:05.468Z,260
2018-06-02T12:25:05.203Z,240
2018-06-02T12:26:05.205Z,230
2018-06-02T12:27:05.538Z,230
2018-06-02T12:28:05.205Z,235
2018-06-02T12:29:05.208Z,260
2018-06-02T12:30:05.501Z,285
2018-06-02T12:31:05.207Z,310
2018-06-02T12:32:04.688Z,345
2018-06-02T12:33:05.464Z,370
2018-06-02T12:34:05.206Z,400
2018-06-02T12:35:05.225Z,430
2018-06-02T12:36:04.963Z,455
2018-06-02T12:37:05.201Z,455
2018-06-02T12:38:04.685Z,455
2018-06-02T12:39:05.203Z,465
2018-06-02T12:40:04.943Z,490
2018-06-02T12:41:05.209Z,475
2018-06-02T12:42:05.456Z,470
2018-06-02T12:43:05.201Z,445
2018-06-02T12:44:05.218Z,445
2018-06-02T12:45:05.200Z,445
2018-06-02T12:46:04.685Z,450
2018-06-02T12:47:05.201Z,455
2018-06-02T12:48:04.941Z,455
2018-06-02T12:49:05.214Z,455
2018-06-02T12:50:04.942Z,455
2018-06-02T12:51:04.944Z,450
2018-06-02T12:52:05.204Z,445
2018-06-02T12:53:05.212Z,445
2018-06-02T12:54:05.210Z,440
2018-06-02T12:55:05.300Z,440
2018-06-02T12:56:04.951Z,445
2018-06-02T12:57:04.686Z,445
2018-06-02T12:58:04.954Z,440
2018-06-02T12:59:04.690Z,430
2018-06-02T13:00:04.689Z,415
2018-06-02T13:01:05.481Z,405
2018-06-02T13:02:04.945Z,395
2018-06-02T13:03:05.212Z,380
2018-06-02T13:04:04.950Z,370
2018-06-02T13:05:05.462Z,370
2018-06-02T13:06:04.948Z,365
2018-06-02T13:07:04.951Z,370
2018-06-02T13:08:05.458Z,390
2018-06-02T13:09:04.949Z,415
2018-06-02T13:10:05.221Z,435
2018-06-02T13:11:04.947Z,455
2018-06-02T13:12:05.209Z,455
2018-06-02T13:13:04.692Z,450
2018-06-02T13:14:05.266Z,440
2018-06-02T13:15:04.691Z,435
2018-06-02T13:16:05.468Z,430
2018-06-02T13:17:05.211Z,425
2018-06-02T13:18:05.207Z,425
2018-06-02T13:19:05.474Z,430
2018-06-02T13:20:05.483Z,440
2018-06-02T13:21:04.696Z,440
2018-06-02T13:22:04.961Z,445
2018-06-02T13:23:04.692Z,455
2018-06-02T13:24:04.951Z,475
2018-06-02T13:25:04.952Z,505
2018-06-02T13:26:05.471Z,530
2018-06-02T13:27:04.973Z,560
2018-06-02T13:28:05.212Z,545
2018-06-02T13:29:04.708Z,535
2018-06-02T13:30:04.699Z,510
2018-06-02T13:31:05.219Z,490
2018-06-02T13:32:05.239Z,500
2018-06-02T13:33:05.623Z,500
2018-06-02T13:34:05.219Z,500
2018-06-02T13:35:04.956Z,505
2018-06-02T13:36:05.218Z,500
2018-06-02T13:37:05.219Z,495
2018-06-02T13:38:05.226Z,485
2018-06-02T13:39:05.486Z,475
2018-06-02T13:40:05.268Z,460
2018-06-02T13:41:05.229Z,430
2018-06-02T13:42:04.716Z,410
2018-06-02T13:43:05.408Z,425
2018-06-02T13:44:04.980Z,445
2018-06-02T13:45:05.504Z,440
2018-06-02T13:46:05.233Z,425
2018-06-02T13:47:04.715Z,415
2018-06-02T13:48:05.510Z,410
2018-06-02T13:49:05.497Z,395
2018-06-02T13:50:04.721Z,400
2018-06-02T13:51:05.500Z,410
2018-06-02T13:52:05.243Z,435
2018-06-02T13:53:05.241Z,450
2018-06-02T13:54:05.500Z,470
2018-06-02T13:55:04.987Z,490
2018-06-02T13:56:04.991Z,490
2018-06-02T13:57:04.996Z,465
2018-06-02T13:58:05.507Z,440
2018-06-02T13:59:05.252Z,420
2018-06-02T14:00:05.533Z,430
2018-06-02T14:01:05.001Z,455
2018-06-02T14:02:05.003Z,465
2018-06-02T14:03:05.003Z,445